createdAt,value
2022-09-07T00:06:09.512Z,18.20
2022-09-07T00:08:36.585Z,18.20
2022-09-07T00:11:06.303Z,18.20
2022-09-07T00:14:29.844Z,18.30
2022-09-07T00:16:56.822Z,18.30
2022-09-07T00:19:23.735Z,18.20
2022-09-07T00:21:50.746Z,18.20
2022-09-07T00:37:09.136Z,18.20
2022-09-07T00:39:37.469Z,18.30
2022-09-07T00:42:05.118Z,18.20
2022-09-07T00:45:09.137Z,18.20
2022-09-07T00:48:04.852Z,18.20
2022-09-07T00:50:46.930Z,18.20
2022-09-07T00:53:26.053Z,18.10
2022-09-07T00:55:53.913Z,18.10
2022-09-07T00:58:23.142Z,18.00
2022-09-07T01:00:51.206Z,18.00
2022-09-07T01:03:25.911Z,18.00
2022-09-07T01:06:05.782Z,18.00
2022-09-07T01:08:33.185Z,18.00
2022-09-07T01:11:01.170Z,17.90
2022-09-07T01:13:28.116Z,17.90
2022-09-07T01:16:03.979Z,17.90
2022-09-07T01:18:45.192Z,17.90
2022-09-07T01:22:02.388Z,18.00
2022-09-07T01:24:50.971Z,18.00
2022-09-07T01:27:36.817Z,18.00
2022-09-07T01:30:16.591Z,17.90
2022-09-07T01:41:18.318Z,17.90
2022-09-07T01:43:58.852Z,17.80
2022-09-07T01:46:49.450Z,17.80
2022-09-07T01:49:22.309Z,17.70
2022-09-07T01:51:55.549Z,17.70
2022-09-07T01:54:29.769Z,17.80
2022-09-07T01:57:03.419Z,17.90
2022-09-07T01:59:35.144Z,17.90
2022-09-07T02:02:09.862Z,17.80
2022-09-07T02:04:36.702Z,17.90
2022-09-07T02:07:13.068Z,17.90
2022-09-07T02:09:49.589Z,17.90
2022-09-07T02:12:35.271Z,17.90
2022-09-07T02:15:10.546Z,17.90
2022-09-07T02:17:43.111Z,17.80
2022-09-07T02:20:23.353Z,17.80
2022-09-07T02:22:56.147Z,17.80
2022-09-07T02:25:27.484Z,17.80
2022-09-07T02:28:02.227Z,17.80
2022-09-07T02:30:29.356Z,17.70
2022-09-07T02:32:56.480Z,17.70
2022-09-07T02:36:20.183Z,17.80
2022-09-07T02:38:47.033Z,17.80
2022-09-07T02:41:35.036Z,17.80
2022-09-07T02:44:08.971Z,17.70
2022-09-07T02:46:54.477Z,17.70
2022-09-07T02:49:42.885Z,17.70
2022-09-07T02:52:29.359Z,17.80
2022-09-07T02:55:33.759Z,17.70
2022-09-07T02:58:03.587Z,17.70
2022-09-07T03:00:42.687Z,17.70
2022-09-07T03:03:17.550Z,17.70
2022-09-07T03:06:03.644Z,17.70
2022-09-07T03:08:36.745Z,17.70
2022-09-07T03:11:06.012Z,17.70
2022-09-07T03:13:33.184Z,17.70
2022-09-07T03:16:00.194Z,17.60
2022-09-07T03:18:28.099Z,17.60
2022-09-07T03:20:56.028Z,17.60
2022-09-07T03:23:23.517Z,17.60
2022-09-07T03:25:50.776Z,17.70
2022-09-07T03:28:17.936Z,17.60
2022-09-07T03:30:47.531Z,17.60
2022-09-07T03:33:17.744Z,17.60
2022-09-07T03:36:41.572Z,17.60
2022-09-07T03:39:11.068Z,17.60
2022-09-07T03:41:37.999Z,17.60
2022-09-07T03:44:06.910Z,17.60
2022-09-07T03:46:34.616Z,17.60
2022-09-07T03:49:01.586Z,17.60
2022-09-07T03:51:28.438Z,17.60
2022-09-07T03:53:55.440Z,17.60
2022-09-07T03:56:24.096Z,17.60
2022-09-07T03:58:53.103Z,17.50
2022-09-07T04:01:25.392Z,17.50
2022-09-07T04:03:53.289Z,17.60
2022-09-07T04:06:20.312Z,17.50
2022-09-07T04:08:47.517Z,17.40
2022-09-07T04:11:17.180Z,17.40
2022-09-07T04:13:46.654Z,17.40
2022-09-07T04:16:24.322Z,17.40
2022-09-07T04:18:54.599Z,17.40
2022-09-07T04:21:23.253Z,17.50
2022-09-07T04:23:50.567Z,17.50
2022-09-07T04:26:20.054Z,17.50
2022-09-07T04:28:48.121Z,17.40
2022-09-07T04:31:16.386Z,17.40
2022-09-07T04:33:44.530Z,17.40
2022-09-07T04:37:07.909Z,17.40
2022-09-07T04:39:35.470Z,17.30
2022-09-07T04:42:02.338Z,17.40
2022-09-07T04:44:29.260Z,17.30
2022-09-07T04:46:56.227Z,17.30
2022-09-07T04:49:23.201Z,17.40
2022-09-07T04:51:50.243Z,17.30
2022-09-07T04:54:17.217Z,17.40
2022-09-07T04:56:44.205Z,17.40
2022-09-07T04:59:11.087Z,17.40
2022-09-07T05:01:38.098Z,17.40
2022-09-07T05:04:05.379Z,17.40
2022-09-07T05:06:32.741Z,17.40
2022-09-07T05:09:00.166Z,17.30
2022-09-07T05:11:29.447Z,17.20
2022-09-07T05:14:01.939Z,17.20
2022-09-07T05:16:30.195Z,17.20
2022-09-07T05:18:59.451Z,17.20
2022-09-07T05:21:29.003Z,17.20
2022-09-07T05:23:58.082Z,17.20
2022-09-07T05:26:27.171Z,17.10
2022-09-07T05:31:41.416Z,17.20
2022-09-07T05:41:52.791Z,17.30
2022-09-07T05:47:07.057Z,17.40
2022-09-07T05:49:34.095Z,17.40
2022-09-07T05:52:01.078Z,17.40
2022-09-07T05:54:27.972Z,17.40
2022-09-07T05:56:54.862Z,17.50
2022-09-07T05:59:21.774Z,17.50
2022-09-07T06:01:49.599Z,17.70
2022-09-07T06:04:16.656Z,18.30
2022-09-07T06:06:54.603Z,18.50
2022-09-07T06:09:30.863Z,18.50
2022-09-07T06:11:57.754Z,18.50
2022-09-07T06:14:25.060Z,18.80
2022-09-07T06:16:51.989Z,19.00
2022-09-07T06:19:19.171Z,19.30
2022-09-07T06:21:46.034Z,19.30
2022-09-07T06:24:13.086Z,19.10
2022-09-07T06:26:40.058Z,18.90
2022-09-07T06:29:07.084Z,18.80
2022-09-07T06:31:34.541Z,18.80
2022-09-07T06:34:01.561Z,18.90
2022-09-07T06:37:25.423Z,18.90
2022-09-07T06:39:55.350Z,19.00
2022-09-07T06:42:22.314Z,18.90
2022-09-07T06:44:49.114Z,19.00
2022-09-07T06:47:15.938Z,19.10
2022-09-07T06:49:42.787Z,19.20
2022-09-07T06:52:10.387Z,19.30
2022-09-07T06:57:24.298Z,19.40
2022-09-07T06:59:51.115Z,19.50
2022-09-07T07:02:18.150Z,19.60
2022-09-07T07:04:46.571Z,19.60
2022-09-07T07:07:14.209Z,19.60
2022-09-07T07:09:41.814Z,19.60
2022-09-07T07:12:09.803Z,19.70
2022-09-07T07:14:40.966Z,19.60
2022-09-07T07:17:10.320Z,19.70
2022-09-07T07:19:37.180Z,19.60
2022-09-07T07:22:29.602Z,19.60
2022-09-07T07:24:51.275Z,19.70
2022-09-07T07:27:18.207Z,19.90
2022-09-07T07:29:46.102Z,19.90
2022-09-07T07:32:13.171Z,20.00
2022-09-07T07:34:39.901Z,20.00
2022-09-07T07:43:57.151Z,20.40
2022-09-07T07:46:27.403Z,20.40
2022-09-07T07:48:55.005Z,20.40
2022-09-07T07:51:22.371Z,20.50
2022-09-07T07:53:49.151Z,20.50
2022-09-07T07:56:16.324Z,20.50
2022-09-07T07:58:47.549Z,20.50
2022-09-07T08:01:16.742Z,20.40
2022-09-07T08:03:45.147Z,20.50
2022-09-07T08:06:17.818Z,20.60
2022-09-07T08:08:45.543Z,20.60
2022-09-07T08:11:17.005Z,20.70
2022-09-07T08:13:45.811Z,20.70
2022-09-07T08:16:13.574Z,20.80
2022-09-07T08:18:41.009Z,21.00
2022-09-07T08:21:11.745Z,21.10
2022-09-07T08:23:39.418Z,21.10
2022-09-07T08:26:06.847Z,21.10
2022-09-07T08:28:37.871Z,21.20
2022-09-07T08:31:10.905Z,21.20
2022-09-07T08:33:38.592Z,21.30
2022-09-07T08:36:13.922Z,21.40
2022-09-07T08:39:36.962Z,21.60
2022-09-07T08:42:20.618Z,21.90
2022-09-07T08:44:57.406Z,22.30
2022-09-07T08:47:49.936Z,22.50
2022-09-07T08:50:43.440Z,22.90
2022-09-07T08:53:21.310Z,22.70
2022-09-07T08:56:20.789Z,22.60
2022-09-07T08:58:54.954Z,22.60
2022-09-07T09:01:42.300Z,22.60
2022-09-07T09:04:25.731Z,22.60
2022-09-07T09:07:31.036Z,22.50
2022-09-07T09:10:21.056Z,22.80
2022-09-07T09:12:59.651Z,23.90
2022-09-07T09:15:54.407Z,23.90
2022-09-07T09:18:37.882Z,23.90
2022-09-07T09:21:10.599Z,24.70
2022-09-07T09:24:29.859Z,25.00
2022-09-07T09:26:57.401Z,25.20
2022-09-07T09:29:24.455Z,25.80
2022-09-07T09:31:52.509Z,26.10
2022-09-07T09:34:23.779Z,26.00
2022-09-07T09:36:58.170Z,26.10
2022-09-07T09:44:03.482Z,26.10
2022-09-07T09:46:36.449Z,26.20
2022-09-07T09:49:17.704Z,26.20
2022-09-07T09:54:42.169Z,26.20
2022-09-07T09:57:16.461Z,26.40
2022-09-07T10:00:01.931Z,26.50
2022-09-07T10:05:41.375Z,26.90
2022-09-07T10:08:35.683Z,26.40
2022-09-07T10:11:04.176Z,26.30
2022-09-07T10:13:43.390Z,26.20
2022-09-07T10:16:11.853Z,26.30
2022-09-07T10:18:56.505Z,26.80
2022-09-07T10:21:25.202Z,26.50
2022-09-07T10:24:18.459Z,26.70
2022-09-07T10:26:45.316Z,26.90
2022-09-07T10:29:19.345Z,26.80
2022-09-07T10:32:21.299Z,27.00
2022-09-07T10:35:08.010Z,27.20
2022-09-07T10:37:46.719Z,26.60
2022-09-07T10:44:45.845Z,27.30
2022-09-07T10:47:18.182Z,27.70
2022-09-07T10:53:23.599Z,28.60
2022-09-07T10:56:06.433Z,28.70
2022-09-07T10:59:04.548Z,28.40
2022-09-07T11:01:54.922Z,28.60
2022-09-07T11:04:47.395Z,28.20
2022-09-07T11:07:44.870Z,28.50
2022-09-07T11:10:36.388Z,28.50
2022-09-07T11:13:27.005Z,28.70
2022-09-07T11:19:35.053Z,28.40
2022-09-07T11:22:36.284Z,28.90
2022-09-07T11:25:29.606Z,29.20
2022-09-07T11:28:21.119Z,29.30
2022-09-07T11:31:17.783Z,29.40
2022-09-07T11:37:42.178Z,30.10
2022-09-07T12:12:57.026Z,26.70
2022-09-07T12:15:54.580Z,26.40
2022-09-07T12:18:51.265Z,26.90
2022-09-07T12:21:50.908Z,27.40
2022-09-07T12:24:53.213Z,27.60
2022-09-07T12:27:39.825Z,27.70
2022-09-07T12:30:25.122Z,27.10
2022-09-07T12:33:22.166Z,26.70
2022-09-07T12:36:26.205Z,27.00
2022-09-07T12:40:08.209Z,27.30
2022-09-07T12:43:12.465Z,27.50
2022-09-07T12:46:00.744Z,27.10
2022-09-07T12:49:13.993Z,27.10
2022-09-07T12:52:23.535Z,26.90
2022-09-07T12:55:28.104Z,26.60
2022-09-07T12:58:26.368Z,26.70
2022-09-07T13:01:17.697Z,26.70
2022-09-07T13:04:19.034Z,26.90
2022-09-07T13:07:36.491Z,26.60
2022-09-07T13:10:33.168Z,26.70
2022-09-07T13:19:52.098Z,27.80
2022-09-07T13:22:37.247Z,28.40
2022-09-07T13:25:23.703Z,29.00
2022-09-07T13:28:31.306Z,29.70
2022-09-07T13:31:29.089Z,30.00
2022-09-07T13:34:33.714Z,30.60
2022-09-07T13:37:24.585Z,31.20
2022-09-07T13:41:06.674Z,30.90
2022-09-07T13:43:59.356Z,30.00
2022-09-07T13:47:17.770Z,29.50
2022-09-07T13:50:15.030Z,28.90
2022-09-07T13:53:14.866Z,28.90
2022-09-07T13:56:06.115Z,29.30
2022-09-07T13:58:53.329Z,29.30
2022-09-07T14:01:45.226Z,29.10
2022-09-07T14:04:42.973Z,28.70
2022-09-07T14:07:30.424Z,28.00
2022-09-07T14:10:18.669Z,27.50
2022-09-07T14:13:12.146Z,27.20
2022-09-07T14:15:57.627Z,27.00
2022-09-07T14:18:42.895Z,27.00
2022-09-07T14:21:28.510Z,27.10
2022-09-07T14:24:35.530Z,27.10
2022-09-07T14:27:38.826Z,27.00
2022-09-07T14:30:33.449Z,26.70
2022-09-07T14:33:20.328Z,26.60
2022-09-07T14:36:23.287Z,26.60
2022-09-07T14:39:13.065Z,26.70
2022-09-07T14:46:57.060Z,26.80
2022-09-07T14:49:43.595Z,26.40
2022-09-07T14:52:43.096Z,26.30
2022-09-07T14:55:45.200Z,26.20
2022-09-07T14:58:32.436Z,26.10
2022-09-07T15:01:38.148Z,25.90
2022-09-07T15:04:23.909Z,25.80
2022-09-07T15:07:28.892Z,25.60
2022-09-07T15:10:23.677Z,25.50
2022-09-07T15:13:32.278Z,25.40
2022-09-07T15:16:26.991Z,25.40
2022-09-07T15:19:15.625Z,25.40
2022-09-07T15:22:05.129Z,25.40
2022-09-07T15:24:50.376Z,25.40
2022-09-07T15:27:35.949Z,25.50
2022-09-07T15:30:21.514Z,25.60
2022-09-07T15:33:07.649Z,25.50
2022-09-07T15:35:53.267Z,25.50
2022-09-07T15:46:41.048Z,27.30
2022-09-07T15:49:28.022Z,28.10
2022-09-07T15:52:13.334Z,27.60
2022-09-07T15:54:59.569Z,27.20
2022-09-07T15:57:50.096Z,26.70
2022-09-07T16:00:37.226Z,26.50
2022-09-07T16:03:22.921Z,26.30
2022-09-07T16:06:13.973Z,26.20
2022-09-07T16:08:59.550Z,26.20
2022-09-07T16:11:45.039Z,26.40
2022-09-07T16:14:30.728Z,26.50
2022-09-07T16:20:22.258Z,26.10
2022-09-07T16:23:17.445Z,26.00
2022-09-07T16:26:05.393Z,26.10
2022-09-07T16:28:52.770Z,26.40
2022-09-07T16:31:38.470Z,26.60
2022-09-07T16:34:24.042Z,26.40
2022-09-07T16:37:09.506Z,26.00
2022-09-07T16:39:55.103Z,25.80
2022-09-07T16:43:37.160Z,25.70
2022-09-07T16:46:25.351Z,25.40
2022-09-07T16:49:12.060Z,25.20
2022-09-07T16:51:57.703Z,25.00
2022-09-07T16:54:45.058Z,24.90
2022-09-07T16:58:35.350Z,24.80
2022-09-07T17:00:37.191Z,24.70
2022-09-07T17:03:22.583Z,24.60
2022-09-07T17:06:09.834Z,24.50
2022-09-07T17:08:55.641Z,24.50
2022-09-07T17:11:41.420Z,24.60
2022-09-07T17:14:28.377Z,24.60
2022-09-07T17:17:16.417Z,24.60
2022-09-07T17:20:02.396Z,24.60
2022-09-07T17:22:47.674Z,24.50
2022-09-07T17:25:33.383Z,24.40
2022-09-07T17:28:18.917Z,24.30
2022-09-07T17:34:21.696Z,24.20
2022-09-07T17:42:04.243Z,24.10
2022-09-07T17:44:52.808Z,24.00
2022-09-07T17:47:38.850Z,24.00
2022-09-07T17:55:06.838Z,24.00
2022-09-07T17:57:52.263Z,23.90
2022-09-07T18:00:38.378Z,23.80
2022-09-07T18:03:23.702Z,23.60
2022-09-07T18:06:10.885Z,23.60
2022-09-07T18:08:56.010Z,23.60
2022-09-07T18:11:45.515Z,23.50
2022-09-07T18:14:32.204Z,23.50
2022-09-07T18:17:17.566Z,23.50
2022-09-07T18:20:02.996Z,23.50
2022-09-07T18:22:48.585Z,23.50
2022-09-07T18:25:35.515Z,23.50
2022-09-07T18:31:27.148Z,23.40
2022-09-07T18:34:12.305Z,23.40
2022-09-07T18:36:58.649Z,23.30
2022-09-07T18:39:45.732Z,23.30
2022-09-07T18:42:31.076Z,23.20
2022-09-07T18:45:31.991Z,23.20
2022-09-07T18:48:17.361Z,23.10
2022-09-07T18:55:06.045Z,22.90
2022-09-07T18:57:51.297Z,22.80
2022-09-07T19:00:36.938Z,22.80
2022-09-07T19:03:22.300Z,22.70
2022-09-07T19:06:15.199Z,22.70
2022-09-07T19:09:00.569Z,22.60
2022-09-07T19:11:45.961Z,22.50
2022-09-07T19:14:31.684Z,22.50
2022-09-07T19:17:17.949Z,22.40
2022-09-07T19:20:03.902Z,22.30
2022-09-07T19:22:49.498Z,22.30
2022-09-07T19:25:39.166Z,22.30
2022-09-07T19:28:24.531Z,22.20
2022-09-07T19:31:09.897Z,22.20
2022-09-07T19:34:01.052Z,22.10
2022-09-07T19:36:46.498Z,22.10
2022-09-07T19:39:32.052Z,22.10
2022-09-07T19:42:17.718Z,22.10
2022-09-07T19:45:03.609Z,22.10
2022-09-07T19:47:50.670Z,22.10
2022-09-07T19:55:33.471Z,22.00
2022-09-07T19:58:19.129Z,21.90
2022-09-07T20:01:13.728Z,21.80
2022-09-07T20:04:05.170Z,21.80
2022-09-07T20:06:51.839Z,21.80
2022-09-07T20:09:37.042Z,21.70
2022-09-07T20:12:22.541Z,21.60
2022-09-07T20:15:08.747Z,21.50
2022-09-07T20:17:54.730Z,21.50
2022-09-07T20:20:39.925Z,21.40
2022-09-07T20:23:25.390Z,21.30
2022-09-07T20:26:12.893Z,21.30
2022-09-07T20:29:23.397Z,21.30
2022-09-07T20:32:05.119Z,21.30
2022-09-07T20:34:50.593Z,21.20
2022-09-07T20:37:36.279Z,21.10
2022-09-07T20:40:21.678Z,21.10
2022-09-07T20:43:07.023Z,21.10
2022-09-07T20:46:56.744Z,21.10
2022-09-07T20:49:42.374Z,21.00
2022-09-07T20:53:24.375Z,20.90
2022-09-07T20:56:21.161Z,20.80
2022-09-07T20:59:07.074Z,20.70
2022-09-07T21:01:52.320Z,20.70
2022-09-07T21:04:37.810Z,20.70
2022-09-07T21:07:23.554Z,20.70
2022-09-07T21:10:09.720Z,20.70
2022-09-07T21:12:54.956Z,20.60
2022-09-07T21:15:44.693Z,20.50
2022-09-07T21:18:30.157Z,20.40
2022-09-07T21:21:20.086Z,20.40
2022-09-07T21:24:06.764Z,20.40
2022-09-07T21:26:52.494Z,20.60
2022-09-07T21:29:37.826Z,20.50
2022-09-07T21:32:23.455Z,20.30
2022-09-07T21:35:12.480Z,20.20
2022-09-07T21:37:57.691Z,20.20
2022-09-07T21:40:43.337Z,20.30
2022-09-07T21:43:29.107Z,20.30
2022-09-07T21:46:19.066Z,20.30
2022-09-07T21:49:05.132Z,20.30
2022-09-07T21:51:59.463Z,20.20
2022-09-07T21:54:45.072Z,20.10
2022-09-07T21:57:30.612Z,20.10
2022-09-07T22:00:16.358Z,20.10
2022-09-07T22:03:01.471Z,20.10
2022-09-07T22:05:47.358Z,20.10
2022-09-07T22:08:34.570Z,20.10
2022-09-07T22:11:21.694Z,20.00
2022-09-07T22:14:07.188Z,19.90
2022-09-07T22:16:52.515Z,19.80
2022-09-07T22:19:39.141Z,19.80
2022-09-07T22:22:24.435Z,19.80
2022-09-07T22:25:09.938Z,19.80
2022-09-07T22:27:55.527Z,19.70
2022-09-07T22:30:41.096Z,19.70
2022-09-07T22:33:26.769Z,19.70
2022-09-07T22:36:18.732Z,19.70
2022-09-07T22:39:08.235Z,19.70
2022-09-07T22:41:53.737Z,19.70
2022-09-07T22:44:39.252Z,19.70
2022-09-07T22:47:25.367Z,19.70
2022-09-07T22:50:11.569Z,19.80
2022-09-07T22:57:35.068Z,19.80
2022-09-07T23:00:20.738Z,19.70
2022-09-07T23:03:06.335Z,19.70
2022-09-07T23:05:51.954Z,19.70
2022-09-07T23:08:37.498Z,19.70
2022-09-07T23:11:24.586Z,19.70
2022-09-07T23:14:16.774Z,19.60
2022-09-07T23:17:02.480Z,19.50
2022-09-07T23:19:48.021Z,19.50
2022-09-07T23:22:33.957Z,19.50
2022-09-07T23:25:19.430Z,19.40
2022-09-07T23:28:07.245Z,19.30
2022-09-07T23:30:52.816Z,19.30
2022-09-07T23:33:38.170Z,19.30
2022-09-07T23:36:24.447Z,19.30
2022-09-07T23:39:09.789Z,19.10
2022-09-07T23:41:55.174Z,19.10
2022-09-07T23:48:48.840Z,19.10
2022-09-07T23:51:34.100Z,19.20
2022-09-07T23:54:19.363Z,19.20
2022-09-07T23:57:05.104Z,19.40
2022-09-07T23:59:50.720Z,19.30
